首页
METAR-TAF:

METAR-TAF

机场 :

石油平台

Euro, 荷兰

纬度: 51-59-52N, 经度: 3-16-30E, 海拔: 18米

当前天气观测

该预报发布于43分钟前的11:55 UTC
风速14节,风向西
温度 8°C
湿度 61%
气压 1016 hPa
能见度10公里或以上

METAR: EHSA 191155Z AUTO 27014KT 9999 ///////// 08/01 Q1016 W10/H17

时间: 13:38 (12:38 UTC)


TAF: 丢失

超过4000个机场的气象观测和天气预报(METAR&TAF报告)。

可查询的气象台以黄色和红色小点在地图上表示。

将鼠标移到小点上方,可查看气象台名称。

然后点击查看天气观测和预报。

如需切换地图:点击带黑十字的绿色按钮放大地图;点击带横线的绿色按钮缩小地图;或者点击绿色箭头查看邻近地区的地图。


METAR-TAF: